createdAt,value
2019-04-14T00:01:39.082Z,52.90
2019-04-14T00:04:35.465Z,51.95
2019-04-14T00:10:46.488Z,47.95
2019-04-14T00:13:15.870Z,50.73
2019-04-14T00:15:48.776Z,46.68
2019-04-14T00:18:25.797Z,47.53
2019-04-14T00:20:55.567Z,49.67
2019-04-14T00:23:45.677Z,46.40
2019-04-14T00:29:50.326Z,50.83
2019-04-14T00:35:40.625Z,50.25
2019-04-14T00:38:30.137Z,48.52
2019-04-14T00:44:25.503Z,50.73
2019-04-14T00:49:50.882Z,47.43
2019-04-14T00:52:31.772Z,47.13
2019-04-14T00:55:46.909Z,49.50
2019-04-14T00:58:17.097Z,49.03
2019-04-14T01:01:07.000Z,49.23
2019-04-14T01:03:43.763Z,53.05
2019-04-14T01:06:20.692Z,55.52
2019-04-14T01:08:55.605Z,57.65
2019-04-14T01:11:24.961Z,53.98
2019-04-14T01:13:55.073Z,51.88
2019-04-14T01:16:31.934Z,51.00
2019-04-14T01:19:07.464Z,52.10
2019-04-14T01:21:37.103Z,56.20
2019-04-14T01:24:27.196Z,53.73
2019-04-14T01:26:57.113Z,57.90
2019-04-14T01:29:47.355Z,58.78
2019-04-14T01:32:24.058Z,52.67
2019-04-14T01:34:59.539Z,55.88
2019-04-14T01:37:29.117Z,53.10
2019-04-14T01:40:19.047Z,49.00
2019-04-14T01:42:48.572Z,51.53
2019-04-14T01:48:14.779Z,52.27
2019-04-14T01:51:13.602Z,54.27
2019-04-14T01:57:11.396Z,54.93
2019-04-14T02:02:50.930Z,53.87
2019-04-14T02:05:45.656Z,54.77
2019-04-14T02:08:15.496Z,52.25
2019-04-14T02:11:05.338Z,54.45
2019-04-14T02:13:35.450Z,54.30
2019-04-14T02:16:32.972Z,54.50
2019-04-14T02:19:06.624Z,54.40
2019-04-14T02:24:54.815Z,54.03
2019-04-14T02:27:45.001Z,54.05
2019-04-14T02:30:24.999Z,56.75
2019-04-14T02:33:26.627Z,55.25
2019-04-14T02:36:06.289Z,54.67
2019-04-14T02:38:45.696Z,53.28
2019-04-14T02:41:30.031Z,54.20
2019-04-14T02:44:09.796Z,52.98
2019-04-14T02:46:38.280Z,55.33
2019-04-14T02:49:08.266Z,60.88
2019-04-14T02:51:43.886Z,55.70
2019-04-14T02:54:24.593Z,56.20
2019-04-14T02:57:05.479Z,57.65
2019-04-14T03:02:56.414Z,56.92
2019-04-14T03:11:49.143Z,53.85
2019-04-14T03:14:17.400Z,56.10
2019-04-14T03:17:29.169Z,55.28
2019-04-14T03:28:37.830Z,61.50
2019-04-14T03:34:30.695Z,63.83
2019-04-14T03:39:31.839Z,61.98
2019-04-14T03:42:01.584Z,64.15
2019-04-14T03:44:41.802Z,58.87
2019-04-14T03:47:25.689Z,62.13
2019-04-14T03:49:52.897Z,59.20
2019-04-14T03:52:41.564Z,63.08
2019-04-14T03:54:56.702Z,62.33
2019-04-14T03:57:19.325Z,59.42
2019-04-14T03:59:56.383Z,64.47
2019-04-14T04:02:31.947Z,56.50
2019-04-14T04:05:02.249Z,62.83
2019-04-14T04:07:51.793Z,57.23
2019-04-14T04:10:29.206Z,59.25
2019-04-14T04:13:04.575Z,59.00
2019-04-14T04:19:27.285Z,59.38
2019-04-14T04:22:15.731Z,59.80
2019-04-14T04:27:44.089Z,60.00
2019-04-14T04:30:32.499Z,59.60
2019-04-14T04:33:22.025Z,60.52
2019-04-14T04:36:18.183Z,61.42
2019-04-14T04:41:49.571Z,61.35
2019-04-14T04:44:20.131Z,61.48
2019-04-14T04:46:56.883Z,61.05
2019-04-14T04:49:32.935Z,56.88
2019-04-14T04:52:11.095Z,58.30
2019-04-14T04:54:45.072Z,58.40
2019-04-14T04:57:15.486Z,55.95
2019-04-14T05:03:27.783Z,59.10
2019-04-14T05:06:35.719Z,56.55
2019-04-14T05:09:44.973Z,62.30
2019-04-14T05:12:33.430Z,60.45
2019-04-14T05:18:02.756Z,60.05
2019-04-14T05:20:33.395Z,59.88
2019-04-14T05:23:23.343Z,60.35
2019-04-14T05:26:03.000Z,56.40
2019-04-14T05:28:33.161Z,63.35
2019-04-14T05:31:09.694Z,57.88
2019-04-14T05:33:44.861Z,60.75
2019-04-14T05:36:15.020Z,58.28
2019-04-14T05:42:28.667Z,58.83
2019-04-14T05:48:13.940Z,57.13
2019-04-14T05:51:04.170Z,59.03
2019-04-14T05:53:43.917Z,58.52
2019-04-14T05:56:14.326Z,59.00
2019-04-14T05:58:51.436Z,59.83
2019-04-14T06:01:27.038Z,57.08
2019-04-14T06:04:02.934Z,55.83
2019-04-14T06:06:32.661Z,54.30
2019-04-14T06:09:02.021Z,56.68
2019-04-14T06:11:31.623Z,58.10
2019-04-14T06:14:00.965Z,56.05
2019-04-14T06:16:30.309Z,58.05
2019-04-14T06:19:00.023Z,60.38
2019-04-14T06:21:31.009Z,55.65
2019-04-14T06:24:00.351Z,57.55
2019-04-14T06:26:30.013Z,57.55
2019-04-14T06:28:59.422Z,57.80
2019-04-14T06:34:43.602Z,55.80
2019-04-14T06:37:32.062Z,55.15
2019-04-14T06:42:56.916Z,55.25
2019-04-14T06:45:26.277Z,58.23
2019-04-14T06:47:55.630Z,56.70
2019-04-14T06:50:24.978Z,58.42
2019-04-14T06:52:54.332Z,56.90
2019-04-14T06:55:23.680Z,59.10
2019-04-14T06:57:53.036Z,58.68
2019-04-14T07:00:22.536Z,52.30
2019-04-14T07:02:51.886Z,55.40
2019-04-14T07:05:21.231Z,55.52
2019-04-14T07:07:56.873Z,53.13
2019-04-14T07:10:41.037Z,54.33
2019-04-14T07:13:13.805Z,55.78
2019-04-14T07:15:50.693Z,54.58
2019-04-14T07:18:20.029Z,54.33
2019-04-14T07:20:55.319Z,51.18
2019-04-14T07:23:24.670Z,54.03
2019-04-14T07:25:54.010Z,52.70
2019-04-14T07:28:23.361Z,53.83
2019-04-14T07:31:11.814Z,51.35
2019-04-14T07:34:00.273Z,53.58
2019-04-14T07:36:48.994Z,52.75
2019-04-14T07:45:12.756Z,56.08
2019-04-14T07:50:56.881Z,53.02
2019-04-14T07:56:46.988Z,48.00
2019-04-14T07:59:35.441Z,48.95
2019-04-14T08:02:24.149Z,51.60
2019-04-14T08:08:02.625Z,50.48
2019-04-14T08:10:31.944Z,50.08
2019-04-14T08:13:01.304Z,50.12
2019-04-14T08:15:30.646Z,49.30
2019-04-14T08:17:59.984Z,49.13
2019-04-14T08:20:29.341Z,47.43
2019-04-14T08:22:58.704Z,51.13
2019-04-14T08:25:28.062Z,50.23
2019-04-14T08:27:57.403Z,50.90
2019-04-14T08:30:26.783Z,53.68
2019-04-14T08:32:56.127Z,50.40
2019-04-14T08:35:25.751Z,50.83
2019-04-14T08:37:55.105Z,49.85
2019-04-14T08:40:24.438Z,53.27
2019-04-14T08:43:12.892Z,52.20
2019-04-14T08:48:56.809Z,51.03
2019-04-14T08:54:54.350Z,50.77
2019-04-14T09:00:51.981Z,53.17
2019-04-14T09:03:40.664Z,50.37
2019-04-14T09:06:29.155Z,53.52
2019-04-14T09:09:17.605Z,49.93
2019-04-14T09:14:27.881Z,52.00
2019-04-14T09:16:57.212Z,49.40
2019-04-14T09:19:26.566Z,50.90
2019-04-14T09:21:55.900Z,49.73
2019-04-14T09:24:30.913Z,51.37
2019-04-14T09:32:55.137Z,52.10
2019-04-14T09:35:24.469Z,51.67
2019-04-14T09:38:06.035Z,50.20
2019-04-14T09:40:35.631Z,52.50
2019-04-14T09:43:05.328Z,50.13
2019-04-14T09:45:34.680Z,51.93
2019-04-14T09:48:05.648Z,51.87
2019-04-14T09:50:34.989Z,49.30
2019-04-14T09:53:04.378Z,52.30
2019-04-14T09:55:33.829Z,54.70
2019-04-14T09:58:03.162Z,52.17
2019-04-14T10:03:13.159Z,50.50
2019-04-14T10:05:42.493Z,51.37
2019-04-14T10:08:11.873Z,50.47
2019-04-14T10:10:41.204Z,54.83
2019-04-14T10:13:29.667Z,51.80
2019-04-14T10:15:58.975Z,51.73
2019-04-14T10:18:28.315Z,49.10
2019-04-14T10:20:57.661Z,49.17
2019-04-14T10:23:26.993Z,49.60
2019-04-14T10:26:01.550Z,52.50
2019-04-14T10:28:30.884Z,54.37
2019-04-14T10:31:00.220Z,51.03
2019-04-14T10:33:29.560Z,53.20
2019-04-14T10:35:59.235Z,49.57
2019-04-14T10:38:28.577Z,49.00
2019-04-14T10:40:57.910Z,54.37
2019-04-14T10:43:27.353Z,48.53
2019-04-14T10:45:56.692Z,51.37
2019-04-14T10:48:26.026Z,50.70
2019-04-14T10:50:55.374Z,49.30
2019-04-14T10:53:24.698Z,48.47
2019-04-14T10:55:54.035Z,49.20
2019-04-14T10:58:23.371Z,51.17
2019-04-14T11:00:53.077Z,51.40
2019-04-14T11:03:22.430Z,50.50
2019-04-14T11:08:48.205Z,52.07
2019-04-14T11:11:17.538Z,50.73
2019-04-14T11:13:46.889Z,49.90
2019-04-14T11:16:16.231Z,50.43
2019-04-14T11:18:45.826Z,52.70
2019-04-14T11:21:15.182Z,50.97
2019-04-14T11:23:44.508Z,51.10
2019-04-14T11:26:13.858Z,52.83
2019-04-14T11:28:43.244Z,50.50
2019-04-14T11:34:12.551Z,50.37
2019-04-14T11:37:00.993Z,52.20
2019-04-14T11:39:30.336Z,51.53
2019-04-14T11:41:59.735Z,51.60
2019-04-14T11:44:29.111Z,52.93
2019-04-14T11:46:58.468Z,52.87
2019-04-14T11:49:27.884Z,52.53
2019-04-14T11:51:57.506Z,53.77
2019-04-14T11:54:26.924Z,52.03
2019-04-14T11:56:56.329Z,49.73
2019-04-14T11:59:44.859Z,51.17
2019-04-14T12:02:33.396Z,52.40
2019-04-14T12:05:21.894Z,50.57
2019-04-14T12:08:24.295Z,49.50
2019-04-14T12:10:53.749Z,51.70
2019-04-14T12:13:23.128Z,52.30
2019-04-14T12:15:52.484Z,50.97
2019-04-14T12:18:41.239Z,52.80
2019-04-14T12:21:10.590Z,55.10
2019-04-14T12:23:39.929Z,50.40
2019-04-14T12:26:09.261Z,49.00
2019-04-14T12:28:38.927Z,50.40
2019-04-14T12:34:09.751Z,52.20
2019-04-14T12:39:40.680Z,50.70
2019-04-14T12:47:49.245Z,45.57
2019-04-14T12:53:14.014Z,45.17
2019-04-14T12:55:43.357Z,47.47
2019-04-14T13:03:48.688Z,42.20
2019-04-14T13:06:18.406Z,40.10
2019-04-14T13:08:47.749Z,42.03
2019-04-14T13:11:17.099Z,41.10
2019-04-14T13:13:46.444Z,41.90
2019-04-14T13:16:15.853Z,39.50
2019-04-14T13:18:45.307Z,37.70
2019-04-14T13:21:14.646Z,38.67
2019-04-14T13:23:44.002Z,35.73
2019-04-14T13:26:32.762Z,34.30
2019-04-14T13:29:02.122Z,35.37
2019-04-14T13:31:31.459Z,32.93
2019-04-14T13:34:01.078Z,33.83
2019-04-14T13:36:30.412Z,32.33
2019-04-14T13:38:59.749Z,31.40
2019-04-14T13:41:29.100Z,31.37
2019-04-14T13:43:58.469Z,30.73
2019-04-14T13:46:27.820Z,28.63
2019-04-14T13:49:16.759Z,30.30
2019-04-14T13:51:46.458Z,30.97
2019-04-14T13:54:15.813Z,30.47
2019-04-14T13:56:45.180Z,32.30
2019-04-14T13:59:14.579Z,30.10
2019-04-14T14:01:43.975Z,30.53
2019-04-14T14:04:13.450Z,32.47
2019-04-14T14:06:42.937Z,32.00
2019-04-14T14:15:07.304Z,29.57
2019-04-14T14:20:36.339Z,34.30
2019-04-14T14:26:54.876Z,33.40
2019-04-14T14:35:14.640Z,31.93
2019-04-14T14:37:44.044Z,33.57
2019-04-14T14:43:22.509Z,32.40
2019-04-14T14:46:11.033Z,33.33
2019-04-14T14:51:54.941Z,33.30
2019-04-14T14:54:24.347Z,32.67
2019-04-14T14:56:53.772Z,32.90
2019-04-14T14:59:23.160Z,30.93
2019-04-14T15:01:52.523Z,32.70
2019-04-14T15:04:22.004Z,32.40
2019-04-14T15:06:51.370Z,34.13
2019-04-14T15:09:20.778Z,31.20
2019-04-14T15:11:50.193Z,31.77
2019-04-14T15:14:19.626Z,33.53
2019-04-14T15:16:49.131Z,31.77
2019-04-14T15:19:37.669Z,32.13
2019-04-14T15:22:26.469Z,30.83
2019-04-14T15:25:16.031Z,29.00
2019-04-14T15:27:47.119Z,30.30
2019-04-14T15:33:30.401Z,31.17
2019-04-14T15:36:19.073Z,31.50
2019-04-14T15:38:48.554Z,31.20
2019-04-14T15:42:17.075Z,33.10
2019-04-14T15:44:46.923Z,29.80
2019-04-14T15:47:35.546Z,30.13
2019-04-14T15:53:37.343Z,29.53
2019-04-14T15:56:02.322Z,28.57
2019-04-14T16:01:46.351Z,30.50
2019-04-14T16:04:35.090Z,30.80
2019-04-14T16:07:23.754Z,29.67
2019-04-14T16:18:27.464Z,29.77
2019-04-14T16:20:57.047Z,28.20
2019-04-14T16:23:26.612Z,27.50
2019-04-14T16:28:55.683Z,25.63
2019-04-14T16:37:00.897Z,23.93
2019-04-14T16:39:30.477Z,24.17
2019-04-14T16:42:00.035Z,24.57
2019-04-14T16:45:08.276Z,23.93
2019-04-14T16:47:39.490Z,23.07
2019-04-14T16:50:09.227Z,24.43
2019-04-14T16:52:57.890Z,23.37
2019-04-14T16:58:20.776Z,24.70
2019-04-14T17:01:09.582Z,24.87
2019-04-14T17:03:39.144Z,26.10
2019-04-14T17:06:08.729Z,24.67
2019-04-14T17:08:38.295Z,23.50
2019-04-14T17:11:27.264Z,24.43
2019-04-14T17:14:15.950Z,24.13
2019-04-14T17:28:15.611Z,24.17
2019-04-14T17:31:04.297Z,26.50
2019-04-14T17:33:53.222Z,26.80
2019-04-14T17:39:22.117Z,24.90
2019-04-14T17:42:10.792Z,23.73
2019-04-14T17:47:39.981Z,25.10
2019-04-14T17:53:31.163Z,23.37
2019-04-14T17:56:19.934Z,27.53
2019-04-14T17:59:08.957Z,24.27
2019-04-14T18:01:57.642Z,26.20
2019-04-14T18:04:46.395Z,24.77
2019-04-14T18:07:35.082Z,28.27
2019-04-14T18:13:57.521Z,26.25
2019-04-14T18:16:46.216Z,30.00
2019-04-14T18:22:12.107Z,25.08
2019-04-14T18:24:42.974Z,28.42
2019-04-14T18:33:27.914Z,28.92
2019-04-14T18:36:16.762Z,28.70
2019-04-14T18:39:05.479Z,30.80
2019-04-14T18:45:08.491Z,28.15
2019-04-14T18:47:57.197Z,31.05
2019-04-14T18:50:45.879Z,33.27
2019-04-14T18:53:34.660Z,32.53
2019-04-14T18:59:03.207Z,30.55
2019-04-14T19:04:32.418Z,31.57
2019-04-14T19:07:02.386Z,29.30
2019-04-14T19:09:31.969Z,31.33
2019-04-14T19:12:20.690Z,31.12
2019-04-14T19:15:09.399Z,29.85
2019-04-14T19:17:58.093Z,30.68
2019-04-14T19:20:27.666Z,31.45
2019-04-14T19:22:57.354Z,29.75
2019-04-14T19:25:26.932Z,30.12
2019-04-14T19:27:56.602Z,30.75
2019-04-14T19:30:26.195Z,31.50
2019-04-14T19:32:55.791Z,30.90
2019-04-14T19:35:26.889Z,27.85
2019-04-14T19:38:02.248Z,30.97
2019-04-14T19:40:31.964Z,29.45
2019-04-14T19:43:01.554Z,31.50
2019-04-14T19:45:31.078Z,31.35
2019-04-14T19:48:00.655Z,33.53
2019-04-14T19:50:30.255Z,32.17
2019-04-14T19:52:59.831Z,30.92
2019-04-14T19:55:29.842Z,33.05
2019-04-14T19:57:59.408Z,29.63
2019-04-14T20:00:28.996Z,30.17
2019-04-14T20:02:58.573Z,29.67
2019-04-14T20:05:28.161Z,29.42
2019-04-14T20:07:57.753Z,29.00
2019-04-14T20:10:27.317Z,28.38
2019-04-14T20:12:56.893Z,28.77
2019-04-14T20:18:54.674Z,28.52
2019-04-14T20:21:43.406Z,28.50
2019-04-14T20:24:32.112Z,30.77
2019-04-14T20:27:20.819Z,29.65
2019-04-14T20:32:46.467Z,26.70
2019-04-14T20:35:28.430Z,25.40
2019-04-14T20:37:58.011Z,26.27
2019-04-14T20:40:27.630Z,26.93
2019-04-14T20:42:57.150Z,26.97
2019-04-14T20:45:26.695Z,27.30
2019-04-14T20:47:56.169Z,26.33
2019-04-14T20:50:25.594Z,27.00
2019-04-14T20:52:54.999Z,26.07
2019-04-14T20:55:24.407Z,27.30
2019-04-14T20:57:53.777Z,27.27
2019-04-14T21:03:37.589Z,25.85
2019-04-14T21:06:26.057Z,24.95
2019-04-14T21:12:30.348Z,22.10
2019-04-14T21:15:18.827Z,23.00
2019-04-14T21:20:47.944Z,23.65
2019-04-14T21:26:32.176Z,23.40
2019-04-14T21:29:20.637Z,23.60
2019-04-14T21:37:29.059Z,22.58
2019-04-14T21:40:17.509Z,25.15
2019-04-14T21:42:46.844Z,23.20
2019-04-14T21:45:16.314Z,23.10
2019-04-14T21:47:45.659Z,21.90
2019-04-14T21:50:15.132Z,22.50
2019-04-14T21:55:39.614Z,23.80
2019-04-14T22:01:28.853Z,23.07
2019-04-14T22:04:17.299Z,22.65
2019-04-14T22:09:41.860Z,23.75
2019-04-14T22:12:11.207Z,23.00
2019-04-14T22:14:52.287Z,23.50
2019-04-14T22:17:21.642Z,24.02
2019-04-14T22:19:50.980Z,23.75
2019-04-14T22:23:00.240Z,22.80
2019-04-14T22:25:29.666Z,24.10
2019-04-14T22:27:59.011Z,23.70
2019-04-14T22:30:42.258Z,24.55
2019-04-14T22:33:11.624Z,24.40
2019-04-14T22:35:41.040Z,23.47
2019-04-14T22:38:22.868Z,22.75
2019-04-14T22:40:52.348Z,23.32
2019-04-14T22:43:21.641Z,23.47
2019-04-14T22:45:51.031Z,25.92
2019-04-14T22:48:20.456Z,22.95
2019-04-14T22:50:49.797Z,24.82
2019-04-14T22:53:19.134Z,24.87
2019-04-14T22:55:48.478Z,23.70
2019-04-14T22:58:17.817Z,25.62
2019-04-14T23:01:06.276Z,26.37
2019-04-14T23:03:54.887Z,26.75
2019-04-14T23:09:14.751Z,25.97
2019-04-14T23:12:03.210Z,26.02
2019-04-14T23:17:31.345Z,25.32
2019-04-14T23:23:00.779Z,23.95
2019-04-14T23:25:30.116Z,26.77
2019-04-14T23:27:59.457Z,28.60
2019-04-14T23:30:28.808Z,26.62
2019-04-14T23:32:58.141Z,25.50
2019-04-14T23:35:27.549Z,27.27
2019-04-14T23:37:56.899Z,28.42
2019-04-14T23:40:26.239Z,26.75
2019-04-14T23:42:55.576Z,26.95
2019-04-14T23:45:24.927Z,27.00
2019-04-14T23:47:59.756Z,28.90
2019-04-14T23:50:29.177Z,26.48
2019-04-14T23:52:58.519Z,28.15
2019-04-14T23:55:27.865Z,27.37
2019-04-14T23:57:57.219Z,27.10
